createdAt,value
2023-03-01T00:01:43.927Z,100750.16
2023-03-01T00:04:13.795Z,100748.39
2023-03-01T00:06:43.507Z,100745.56
2023-03-01T00:09:10.451Z,100740.30
2023-03-01T00:11:39.943Z,100737.73
2023-03-01T00:14:09.669Z,100740.73
2023-03-01T00:16:42.451Z,100737.09
2023-03-01T00:19:18.467Z,100737.27
2023-03-01T00:21:45.909Z,100740.98
2023-03-01T00:24:12.800Z,100742.71
2023-03-01T00:26:39.987Z,100739.54
2023-03-01T00:29:07.334Z,100736.21
2023-03-01T00:31:36.450Z,100731.48
2023-03-01T00:34:05.542Z,100726.54
2023-03-01T00:36:36.116Z,100715.66
2023-03-01T00:39:12.475Z,100713.70
2023-03-01T00:41:43.188Z,100710.44
2023-03-01T00:44:10.961Z,100713.48
2023-03-01T00:46:38.836Z,100710.30
2023-03-01T00:49:05.857Z,100717.77
2023-03-01T00:51:33.399Z,100717.17
2023-03-01T00:54:03.276Z,100713.08
2023-03-01T00:56:31.943Z,100712.98
2023-03-01T00:58:59.333Z,100715.61
2023-03-01T01:01:31.958Z,100716.48
2023-03-01T01:04:03.034Z,100719.58
2023-03-01T01:06:33.845Z,100720.59
2023-03-01T01:09:01.379Z,100718.84
2023-03-01T01:11:29.949Z,100716.27
2023-03-01T01:13:58.385Z,100712.99
2023-03-01T01:16:27.693Z,100703.60
2023-03-01T01:18:55.915Z,100705.61
2023-03-01T01:21:24.723Z,100703.95
2023-03-01T01:23:52.704Z,100702.64
2023-03-01T01:26:23.917Z,100696.38
2023-03-01T01:28:51.765Z,100695.70
2023-03-01T01:31:24.207Z,100694.71
2023-03-01T01:33:53.027Z,100691.16
2023-03-01T01:36:20.436Z,100690.59
2023-03-01T01:38:47.436Z,100695.04
2023-03-01T01:41:15.552Z,100691.06
2023-03-01T01:43:49.959Z,100686.20
2023-03-01T01:46:34.670Z,100688.61
2023-03-01T01:49:13.020Z,100691.09
2023-03-01T01:51:44.487Z,100690.70
2023-03-01T01:54:36.134Z,100694.28
2023-03-01T01:57:09.640Z,100689.94
2023-03-01T01:59:38.533Z,100689.11
2023-03-01T02:02:06.044Z,100689.86
2023-03-01T02:04:33.702Z,100692.36
2023-03-01T02:07:23.279Z,100694.60
2023-03-01T02:09:53.277Z,100691.77
2023-03-01T02:12:25.092Z,100698.18
2023-03-01T02:14:52.198Z,100699.23
2023-03-01T02:17:21.485Z,100693.63
2023-03-01T02:20:09.429Z,100696.37
2023-03-01T02:22:38.891Z,100688.59
2023-03-01T02:25:05.869Z,100689.39
2023-03-01T02:27:42.029Z,100688.23
2023-03-01T02:30:12.799Z,100687.88
2023-03-01T02:32:43.196Z,100685.94
2023-03-01T02:35:14.918Z,100681.81
2023-03-01T02:37:44.719Z,100678.77
2023-03-01T02:40:17.812Z,100676.42
2023-03-01T02:42:51.542Z,100678.83
2023-03-01T02:45:18.906Z,100674.41
2023-03-01T02:47:46.859Z,100677.83
2023-03-01T02:50:31.318Z,100670.33
2023-03-01T02:53:09.895Z,100668.91
2023-03-01T02:55:37.491Z,100668.67
2023-03-01T02:58:05.332Z,100666.90
2023-03-01T03:00:47.352Z,100664.30
2023-03-01T03:03:22.421Z,100655.92
2023-03-01T03:05:52.631Z,100659.30
2023-03-01T03:08:24.397Z,100654.80
2023-03-01T03:10:51.939Z,100648.19
2023-03-01T03:13:19.585Z,100642.67
2023-03-01T03:15:46.605Z,100639.26
2023-03-01T03:18:17.140Z,100633.45
2023-03-01T03:20:45.370Z,100638.16
2023-03-01T03:23:12.524Z,100637.92
2023-03-01T03:25:40.152Z,100635.23
2023-03-01T03:28:11.060Z,100629.85
2023-03-01T03:30:40.951Z,100626.89
2023-03-01T03:33:11.238Z,100623.95
2023-03-01T03:35:47.800Z,100623.46
2023-03-01T03:38:18.044Z,100617.24
2023-03-01T03:41:01.629Z,100617.03
2023-03-01T03:43:30.392Z,100611.58
2023-03-01T03:45:59.099Z,100604.19
2023-03-01T03:48:27.871Z,100601.12
2023-03-01T03:50:57.102Z,100593.50
2023-03-01T03:53:27.163Z,100588.96
2023-03-01T03:55:54.500Z,100588.59
2023-03-01T03:58:24.215Z,100587.45
2023-03-01T04:00:57.403Z,100589.44
2023-03-01T04:03:27.702Z,100591.96
2023-03-01T04:05:54.956Z,100587.30
2023-03-01T04:08:24.632Z,100583.21
2023-03-01T04:10:57.814Z,100577.27
2023-03-01T04:13:26.938Z,100574.96
2023-03-01T04:15:55.432Z,100572.96
2023-03-01T04:18:24.990Z,100569.14
2023-03-01T04:20:55.649Z,100560.08
2023-03-01T04:23:23.306Z,100553.26
2023-03-01T04:25:54.737Z,100551.60
2023-03-01T04:28:28.597Z,100548.05
2023-03-01T04:30:57.800Z,100540.02
2023-03-01T04:33:25.999Z,100536.42
2023-03-01T04:35:53.416Z,100533.34
2023-03-01T04:38:21.732Z,100536.20
2023-03-01T04:40:48.882Z,100534.17
2023-03-01T04:43:16.255Z,100531.11
2023-03-01T04:45:43.939Z,100529.84
2023-03-01T04:48:11.052Z,100527.88
2023-03-01T04:50:39.194Z,100528.86
2023-03-01T04:53:06.229Z,100536.63
2023-03-01T04:55:34.171Z,100539.19
2023-03-01T04:58:01.182Z,100535.42
2023-03-01T05:00:28.196Z,100537.41
2023-03-01T05:02:57.808Z,100548.52
2023-03-01T05:05:32.234Z,100541.60
2023-03-01T05:08:19.557Z,100544.86
2023-03-01T05:10:52.657Z,100545.48
2023-03-01T05:13:22.305Z,100541.22
2023-03-01T05:16:01.376Z,100544.09
2023-03-01T05:18:32.320Z,100539.52
2023-03-01T05:21:08.475Z,100533.02
2023-03-01T05:23:39.299Z,100536.86
2023-03-01T05:26:09.443Z,100545.31
2023-03-01T05:28:38.480Z,100556.16
2023-03-01T05:31:10.020Z,100566.82
2023-03-01T05:33:38.871Z,100556.70
2023-03-01T05:36:12.709Z,100550.98
2023-03-01T05:38:39.774Z,100555.41
2023-03-01T05:41:17.535Z,100551.56
2023-03-01T05:43:48.309Z,100551.48
2023-03-01T05:46:15.739Z,100556.70
2023-03-01T05:48:42.766Z,100553.19
2023-03-01T05:51:09.822Z,100547.07
2023-03-01T05:53:38.958Z,100547.02
2023-03-01T05:56:06.645Z,100548.74
2023-03-01T05:58:34.107Z,100553.51
2023-03-01T06:01:01.594Z,100551.67
2023-03-01T06:03:28.891Z,100557.36
2023-03-01T06:05:57.836Z,100560.73
2023-03-01T06:08:27.215Z,100560.42
2023-03-01T06:10:54.555Z,100552.70
2023-03-01T06:13:23.946Z,100552.50
2023-03-01T06:15:52.502Z,100554.56
2023-03-01T06:18:20.216Z,100553.84
2023-03-01T06:20:54.275Z,100552.85
2023-03-01T06:23:30.332Z,100549.21
2023-03-01T06:25:58.541Z,100539.86
2023-03-01T06:28:26.932Z,100530.20
2023-03-01T06:30:57.627Z,100522.86
2023-03-01T06:33:25.286Z,100518.10
2023-03-01T06:35:55.260Z,100520.45
2023-03-01T06:38:23.387Z,100532.09
2023-03-01T06:40:55.303Z,100526.17
2023-03-01T06:43:23.947Z,100522.98
2023-03-01T06:45:51.523Z,100516.46
2023-03-01T06:48:19.284Z,100513.20
2023-03-01T06:53:38.185Z,100511.78
2023-03-01T06:56:05.381Z,100515.40
2023-03-01T06:58:33.576Z,100510.88
2023-03-01T07:01:00.979Z,100514.02
2023-03-01T07:03:28.352Z,100513.34
2023-03-01T07:06:04.774Z,100509.52
2023-03-01T07:08:38.855Z,100508.27
2023-03-01T07:11:23.055Z,100507.39
2023-03-01T07:13:50.407Z,100510.48
2023-03-01T07:16:20.950Z,100510.08
2023-03-01T07:18:48.219Z,100502.18
2023-03-01T07:21:17.088Z,100497.55
2023-03-01T07:23:48.079Z,100494.05
2023-03-01T07:26:21.188Z,100491.58
2023-03-01T07:28:48.425Z,100489.28
2023-03-01T07:31:16.101Z,100487.27
2023-03-01T07:33:45.439Z,100483.62
2023-03-01T07:36:12.681Z,100478.14
2023-03-01T07:38:41.508Z,100472.29
2023-03-01T07:41:08.852Z,100469.04
2023-03-01T07:43:38.692Z,100466.79
2023-03-01T07:46:06.643Z,100465.80
2023-03-01T07:48:38.540Z,100463.30
2023-03-01T07:51:08.142Z,100460.02
2023-03-01T07:53:36.190Z,100453.67
2023-03-01T07:56:35.351Z,100452.31
2023-03-01T07:59:04.406Z,100446.17
2023-03-01T08:01:35.839Z,100439.33
2023-03-01T08:04:02.976Z,100437.71
2023-03-01T08:06:30.877Z,100435.54
2023-03-01T08:08:58.977Z,100430.15
2023-03-01T08:11:29.784Z,100430.45
2023-03-01T08:14:18.025Z,100431.85
2023-03-01T08:16:50.663Z,100435.90
2023-03-01T08:19:19.271Z,100434.33
2023-03-01T08:21:46.289Z,100431.31
2023-03-01T08:24:14.423Z,100430.71
2023-03-01T08:26:42.533Z,100425.41
2023-03-01T08:29:12.854Z,100420.34
2023-03-01T08:31:41.302Z,100407.45
2023-03-01T08:34:11.485Z,100400.58
2023-03-01T08:36:42.528Z,100398.55
2023-03-01T08:39:16.653Z,100395.13
2023-03-01T08:41:49.463Z,100387.72
2023-03-01T08:44:19.171Z,100389.21
2023-03-01T08:46:48.006Z,100383.73
2023-03-01T08:49:19.732Z,100379.42
2023-03-01T08:51:47.860Z,100373.27
2023-03-01T08:54:20.619Z,100370.81
2023-03-01T08:56:50.607Z,100357.87
2023-03-01T08:59:18.641Z,100355.27
2023-03-01T09:01:45.638Z,100355.83
2023-03-01T09:04:14.795Z,100349.90
2023-03-01T09:06:42.595Z,100351.73
2023-03-01T09:09:17.600Z,100344.68
2023-03-01T09:11:50.570Z,100341.98
2023-03-01T09:14:19.352Z,100336.35
2023-03-01T09:16:47.163Z,100334.61
2023-03-01T09:19:14.599Z,100330.10
2023-03-01T09:21:41.729Z,100327.98
2023-03-01T09:24:15.334Z,100324.73
2023-03-01T09:26:46.803Z,100323.74
2023-03-01T09:29:14.742Z,100321.80
2023-03-01T09:31:42.454Z,100319.56
2023-03-01T09:34:14.054Z,100318.22
2023-03-01T09:36:40.933Z,100313.35
2023-03-01T09:39:24.265Z,100311.52
2023-03-01T09:42:00.233Z,100311.98
2023-03-01T09:44:45.917Z,100306.71
2023-03-01T09:47:19.417Z,100300.54
2023-03-01T09:50:05.322Z,100293.88
2023-03-01T09:52:41.658Z,100292.66
2023-03-01T09:55:35.273Z,100282.86
2023-03-01T09:58:40.493Z,100267.66
2023-03-01T10:01:35.066Z,100267.10
2023-03-01T10:04:11.530Z,100261.80
2023-03-01T10:07:12.558Z,100258.42
2023-03-01T10:09:46.147Z,100258.40
2023-03-01T10:12:26.271Z,100257.63
2023-03-01T10:15:00.440Z,100248.66
2023-03-01T10:17:52.200Z,100241.56
2023-03-01T10:20:31.049Z,100234.59
2023-03-01T10:22:58.101Z,100230.59
2023-03-01T10:25:45.194Z,100233.77
2023-03-01T10:28:29.252Z,100223.33
2023-03-01T10:30:58.579Z,100216.20
2023-03-01T10:33:35.638Z,100225.37
2023-03-01T10:36:03.226Z,100221.77
2023-03-01T10:38:47.500Z,100218.52
2023-03-01T10:41:17.245Z,100214.20
2023-03-01T10:43:51.513Z,100207.85
2023-03-01T10:46:31.803Z,100207.68
2023-03-01T10:49:21.836Z,100210.02
2023-03-01T10:51:52.778Z,100208.98
2023-03-01T10:54:40.997Z,100214.55
2023-03-01T10:57:32.966Z,100208.88
2023-03-01T11:00:33.123Z,100206.69
2023-03-01T11:03:00.258Z,100203.63
2023-03-01T11:05:30.803Z,100203.61
2023-03-01T11:08:00.198Z,100198.27
2023-03-01T11:10:36.847Z,100197.89
2023-03-01T11:13:07.216Z,100197.28
2023-03-01T11:15:34.204Z,100195.33
2023-03-01T11:18:13.424Z,100192.00
2023-03-01T11:20:42.627Z,100190.55
2023-03-01T11:23:13.682Z,100189.35
2023-03-01T11:25:49.951Z,100190.54
2023-03-01T11:28:20.007Z,100183.80
2023-03-01T11:31:05.538Z,100179.91
2023-03-01T11:33:48.743Z,100177.95
2023-03-01T11:36:16.000Z,100178.84
2023-03-01T11:38:44.180Z,100166.39
2023-03-01T11:41:22.962Z,100167.02
2023-03-01T11:44:28.720Z,100171.37
2023-03-01T11:47:23.436Z,100173.42
2023-03-01T11:50:10.992Z,100166.96
2023-03-01T11:53:05.276Z,100169.70
2023-03-01T11:56:23.940Z,100166.61
2023-03-01T11:59:22.172Z,100165.63
2023-03-01T12:01:52.432Z,100167.80
2023-03-01T12:04:25.549Z,100167.21
2023-03-01T12:07:14.629Z,100168.77
2023-03-01T12:10:02.674Z,100166.86
2023-03-01T12:12:48.474Z,100169.21
2023-03-01T12:15:51.218Z,100167.88
2023-03-01T12:18:40.316Z,100173.61
2023-03-01T12:21:34.659Z,100174.00
2023-03-01T12:24:32.033Z,100177.59
2023-03-01T12:27:34.356Z,100174.94
2023-03-01T12:30:44.922Z,100178.52
2023-03-01T12:33:34.138Z,100176.48
2023-03-01T12:36:34.277Z,100176.11
2023-03-01T12:39:51.898Z,100177.39
2023-03-01T12:43:06.923Z,100177.86
2023-03-01T13:14:48.821Z,100234.16
2023-03-01T13:17:45.816Z,100235.73
2023-03-01T13:20:20.247Z,100243.12
2023-03-01T13:22:54.626Z,100249.09
2023-03-01T13:25:27.649Z,100251.96
2023-03-01T13:28:36.930Z,100257.16
2023-03-01T13:31:07.385Z,100255.84
2023-03-01T13:33:47.303Z,100260.07
2023-03-01T13:36:27.972Z,100259.16
2023-03-01T13:38:58.622Z,100263.25
2023-03-01T13:41:44.009Z,100264.58
2023-03-01T13:44:55.072Z,100267.16
2023-03-01T13:47:59.860Z,100271.08
2023-03-01T13:50:33.794Z,100274.81
2023-03-01T13:53:44.438Z,100276.76
2023-03-01T13:56:22.390Z,100275.55
2023-03-01T13:58:53.836Z,100272.50
2023-03-01T14:01:23.138Z,100274.27
2023-03-01T14:04:43.010Z,100273.45
2023-03-01T14:07:21.045Z,100275.30
2023-03-01T14:09:54.022Z,100274.23
2023-03-01T14:12:42.853Z,100274.42
2023-03-01T14:15:37.285Z,100277.10
2023-03-01T14:18:43.861Z,100276.89
2023-03-01T14:21:21.927Z,100287.27
2023-03-01T14:23:53.482Z,100292.42
2023-03-01T14:26:24.050Z,100296.63
2023-03-01T14:28:51.936Z,100298.63
2023-03-01T14:31:52.139Z,100301.89
2023-03-01T14:34:25.434Z,100311.83
2023-03-01T14:37:20.803Z,100315.56
2023-03-01T14:39:49.125Z,100321.81
2023-03-01T14:42:17.256Z,100322.24
2023-03-01T14:44:51.830Z,100322.88
2023-03-01T14:47:35.826Z,100331.73
2023-03-01T14:50:31.155Z,100323.59
2023-03-01T14:53:02.900Z,100332.77
2023-03-01T14:55:34.249Z,100333.95
2023-03-01T14:58:06.580Z,100339.85
2023-03-01T15:00:37.345Z,100345.23
2023-03-01T15:03:14.238Z,100349.11
2023-03-01T15:05:44.214Z,100353.34
2023-03-01T15:08:20.968Z,100355.04
2023-03-01T15:11:04.511Z,100358.09
2023-03-01T15:13:36.067Z,100362.94
2023-03-01T15:16:23.660Z,100363.70
2023-03-01T15:18:52.231Z,100363.62
2023-03-01T15:21:25.049Z,100365.79
2023-03-01T15:24:01.705Z,100369.37
2023-03-01T15:26:38.416Z,100373.17
2023-03-01T15:29:18.740Z,100376.80
2023-03-01T15:32:06.135Z,100378.83
2023-03-01T15:34:37.820Z,100383.98
2023-03-01T15:37:27.890Z,100390.52
2023-03-01T15:39:57.032Z,100399.04
2023-03-01T15:42:30.425Z,100396.92
2023-03-01T15:45:21.266Z,100398.91
2023-03-01T15:48:05.506Z,100394.04
2023-03-01T15:50:35.381Z,100398.27
2023-03-01T15:53:12.035Z,100399.79
2023-03-01T15:55:39.384Z,100399.69
2023-03-01T15:58:14.563Z,100398.34
2023-03-01T16:00:54.492Z,100403.92
2023-03-01T16:03:26.930Z,100409.02
2023-03-01T16:05:54.370Z,100410.48
2023-03-01T16:08:21.802Z,100410.13
2023-03-01T16:10:51.584Z,100410.00
2023-03-01T16:13:19.808Z,100409.10
2023-03-01T16:15:47.082Z,100412.29
2023-03-01T16:18:15.095Z,100418.27
2023-03-01T16:20:43.544Z,100424.23
2023-03-01T16:23:13.543Z,100433.36
2023-03-01T16:25:41.553Z,100443.05
2023-03-01T16:28:10.605Z,100449.27
2023-03-01T16:30:40.244Z,100449.27
2023-03-01T16:33:24.187Z,100448.27
2023-03-01T16:35:54.271Z,100449.40
2023-03-01T16:38:22.236Z,100442.11
2023-03-01T16:40:52.023Z,100444.98
2023-03-01T16:43:19.810Z,100443.45
2023-03-01T16:45:47.182Z,100439.61
2023-03-01T16:48:16.451Z,100444.20
2023-03-01T16:50:44.203Z,100449.04
2023-03-01T16:53:31.169Z,100452.98
2023-03-01T16:56:04.232Z,100449.00
2023-03-01T16:58:31.976Z,100454.30
2023-03-01T17:01:17.436Z,100453.25
2023-03-01T17:03:47.053Z,100457.08
2023-03-01T17:06:18.176Z,100454.47
2023-03-01T17:08:45.343Z,100460.43
2023-03-01T17:11:19.143Z,100459.80
2023-03-01T17:13:56.217Z,100464.02
2023-03-01T17:16:24.000Z,100462.80
2023-03-01T17:18:51.137Z,100459.83
2023-03-01T17:21:18.656Z,100464.14
2023-03-01T17:23:49.767Z,100461.96
2023-03-01T17:26:19.725Z,100461.80
2023-03-01T17:28:51.391Z,100460.58
2023-03-01T17:31:19.750Z,100460.59
2023-03-01T17:33:49.520Z,100463.22
2023-03-01T17:36:16.636Z,100460.13
2023-03-01T17:38:46.794Z,100463.11
2023-03-01T17:41:15.617Z,100463.99
2023-03-01T17:43:43.674Z,100469.43
2023-03-01T17:46:11.603Z,100467.64
2023-03-01T17:48:39.526Z,100471.58
2023-03-01T17:51:26.517Z,100474.53
2023-03-01T17:53:53.629Z,100470.92
2023-03-01T17:56:21.295Z,100471.49
2023-03-01T17:58:49.048Z,100470.86
2023-03-01T18:01:42.105Z,100479.85
2023-03-01T18:04:09.436Z,100482.33
2023-03-01T18:06:40.029Z,100487.80
2023-03-01T18:09:07.869Z,100491.31
2023-03-01T18:11:35.838Z,100495.91
2023-03-01T18:14:05.424Z,100495.77
2023-03-01T18:16:33.622Z,100496.46
2023-03-01T18:19:04.193Z,100501.61
2023-03-01T18:21:33.633Z,100505.54
2023-03-01T18:24:01.311Z,100508.51
2023-03-01T18:26:28.875Z,100508.96
2023-03-01T18:28:57.830Z,100508.79
2023-03-01T18:31:26.600Z,100513.23
2023-03-01T18:33:55.193Z,100524.40
2023-03-01T18:36:28.543Z,100525.10
2023-03-01T18:38:56.534Z,100524.66
2023-03-01T18:41:26.485Z,100522.34
2023-03-01T18:43:55.346Z,100526.90
2023-03-01T18:46:23.459Z,100529.04
2023-03-01T18:48:52.737Z,100529.76
2023-03-01T18:51:23.429Z,100533.77
2023-03-01T18:53:58.321Z,100534.69
2023-03-01T18:56:25.915Z,100540.23
2023-03-01T18:58:53.223Z,100536.13
2023-03-01T19:01:24.825Z,100538.69
2023-03-01T19:03:54.318Z,100543.02
2023-03-01T19:06:22.725Z,100543.75
2023-03-01T19:08:56.846Z,100548.27
2023-03-01T19:11:26.854Z,100548.70
2023-03-01T19:13:54.130Z,100553.73
2023-03-01T19:16:27.090Z,100551.08
2023-03-01T19:18:59.009Z,100546.42
2023-03-01T19:21:29.100Z,100551.30
2023-03-01T19:23:59.743Z,100552.00
2023-03-01T19:26:28.241Z,100550.34
2023-03-01T19:28:56.045Z,100551.31
2023-03-01T19:31:26.444Z,100553.91
2023-03-01T19:34:05.283Z,100552.83
2023-03-01T19:36:36.312Z,100556.37
2023-03-01T19:39:06.586Z,100557.81
2023-03-01T19:41:34.143Z,100557.33
2023-03-01T19:44:05.489Z,100556.73
2023-03-01T19:46:33.801Z,100555.91
2023-03-01T19:49:03.115Z,100554.95
2023-03-01T19:51:36.041Z,100552.11
2023-03-01T19:54:05.510Z,100554.21
2023-03-01T19:56:33.692Z,100555.38
2023-03-01T19:59:03.779Z,100558.14
2023-03-01T20:01:33.835Z,100559.16
2023-03-01T20:04:09.364Z,100552.08
2023-03-01T20:06:38.626Z,100561.88
2023-03-01T20:09:20.459Z,100564.36
2023-03-01T20:11:51.168Z,100562.05
2023-03-01T20:14:21.690Z,100562.90
2023-03-01T20:16:51.613Z,100562.65
2023-03-01T20:19:19.011Z,100561.39
2023-03-01T20:21:46.316Z,100561.69
2023-03-01T20:24:13.505Z,100559.16
2023-03-01T20:26:41.076Z,100559.06
2023-03-01T20:29:09.448Z,100568.67
2023-03-01T20:31:38.119Z,100569.35
2023-03-01T20:34:05.293Z,100568.52
2023-03-01T20:36:34.612Z,100563.16
2023-03-01T20:39:04.313Z,100565.01
2023-03-01T20:41:31.565Z,100561.64
2023-03-01T20:43:59.857Z,100567.23
2023-03-01T20:46:31.919Z,100565.39
2023-03-01T20:49:00.610Z,100567.71
2023-03-01T20:51:28.340Z,100566.30
2023-03-01T20:53:56.004Z,100574.50
2023-03-01T20:56:24.115Z,100577.30
2023-03-01T20:59:07.655Z,100570.42
2023-03-01T21:01:39.499Z,100573.03
2023-03-01T21:04:06.904Z,100582.52
2023-03-01T21:06:36.309Z,100573.69
2023-03-01T21:09:03.654Z,100578.81
2023-03-01T21:11:33.449Z,100575.23
2023-03-01T21:14:01.188Z,100581.83
2023-03-01T21:16:28.878Z,100578.27
2023-03-01T21:19:02.492Z,100572.23
2023-03-01T21:21:30.776Z,100572.20
2023-03-01T21:23:59.182Z,100572.65
2023-03-01T21:26:27.415Z,100573.95
2023-03-01T21:28:57.699Z,100566.58
2023-03-01T21:31:28.061Z,100565.71
2023-03-01T21:33:57.128Z,100567.11
2023-03-01T21:36:28.317Z,100570.65
2023-03-01T21:38:58.255Z,100565.70
2023-03-01T21:41:28.178Z,100563.94
2023-03-01T21:44:00.069Z,100557.25
2023-03-01T21:46:30.587Z,100556.74
2023-03-01T21:48:59.461Z,100561.34
2023-03-01T21:51:27.954Z,100566.92
2023-03-01T21:53:56.236Z,100562.65
2023-03-01T21:56:27.257Z,100560.70
2023-03-01T21:59:01.333Z,100566.05
2023-03-01T22:01:28.912Z,100566.13
2023-03-01T22:03:57.864Z,100561.70
2023-03-01T22:06:33.680Z,100565.92
2023-03-01T22:09:08.059Z,100571.54
2023-03-01T22:11:39.116Z,100567.25
2023-03-01T22:14:06.790Z,100571.11
2023-03-01T22:16:36.395Z,100570.75
2023-03-01T22:19:07.034Z,100568.68
2023-03-01T22:21:41.474Z,100571.38
2023-03-01T22:24:09.877Z,100576.75
2023-03-01T22:26:40.595Z,100575.85
2023-03-01T22:29:15.554Z,100574.36
2023-03-01T22:31:43.346Z,100574.23
2023-03-01T22:34:11.700Z,100570.66
2023-03-01T22:36:39.328Z,100567.98
2023-03-01T22:39:07.264Z,100562.75
2023-03-01T22:41:45.054Z,100558.08
2023-03-01T22:44:19.672Z,100564.56
2023-03-01T22:46:51.526Z,100564.39
2023-03-01T22:49:19.805Z,100563.28
2023-03-01T22:51:47.911Z,100559.94
2023-03-01T22:54:18.631Z,100557.62
2023-03-01T22:56:49.450Z,100560.22
2023-03-01T22:59:20.359Z,100562.36
2023-03-01T23:01:48.296Z,100563.49
2023-03-01T23:04:19.567Z,100568.35
2023-03-01T23:06:49.892Z,100564.17
2023-03-01T23:09:32.296Z,100557.98
2023-03-01T23:12:02.303Z,100559.02
2023-03-01T23:14:31.538Z,100556.11
2023-03-01T23:17:02.020Z,100551.44
2023-03-01T23:19:30.697Z,100540.01
2023-03-01T23:21:58.471Z,100533.05
2023-03-01T23:24:30.998Z,100537.86
2023-03-01T23:27:00.220Z,100535.83
2023-03-01T23:29:27.756Z,100528.66
2023-03-01T23:31:57.105Z,100528.45
2023-03-01T23:34:26.657Z,100531.73
2023-03-01T23:36:54.991Z,100527.98
2023-03-01T23:39:22.732Z,100527.56
2023-03-01T23:41:50.359Z,100528.05
2023-03-01T23:44:21.674Z,100535.20
2023-03-01T23:46:50.430Z,100530.50
2023-03-01T23:49:21.523Z,100533.91
2023-03-01T23:51:48.896Z,100536.38
2023-03-01T23:54:21.719Z,100527.40
2023-03-01T23:56:49.652Z,100524.94
2023-03-01T23:59:21.406Z,100522.33
